Terminal Aerodrome Forecast
Issued by NWS Sioux Falls, SD

Home | Current Version | Previous Version | Graphics & Text | Print | Product List | Glossary On
Versions: 1 2 3 4 5 6 7 8 9 10 11 12 13 14
373
FTUS43 KFSD 211128
TAFFSD
TAF
KFSD 211128Z 2112/2212 12008KT P6SM SKC
     FM211400 14010KT P6SM FEW070
     FM211700 16015G23KT P6SM SCT045
     FM220000 16010KT P6SM FEW250
     FM220300 15011KT P6SM FEW250 WS011/18040KT
     FM220700 16013G21KT P6SM FEW250 WS011/19043KT=

USA.gov is the U.S. government's official web portal to all federal, state and local government web resources and services.